sensor_id;sensor_type;location;lat;lon;timestamp;pressure;altitude;pressure_sealevel;temperature;humidity
67987;BME280;54767;53.800;15.956;2023-03-04T00:01:00;99989.34;;;2.71;78.01
67987;BME280;54767;53.800;15.956;2023-03-04T00:03:29;99999.23;;;2.72;78.21
67987;BME280;54767;53.800;15.956;2023-03-04T00:05:57;99998.95;;;2.75;78.13
67987;BME280;54767;53.800;15.956;2023-03-04T00:08:39;99988.54;;;2.73;78.37
67987;BME280;54767;53.800;15.956;2023-03-04T00:11:08;99996.87;;;2.80;78.19
67987;BME280;54767;53.800;15.956;2023-03-04T00:13:36;99996.87;;;2.80;78.08
67987;BME280;54767;53.800;15.956;2023-03-04T00:16:04;99993.02;;;2.78;78.21
67987;BME280;54767;53.800;15.956;2023-03-04T00:18:33;99991.47;;;2.78;78.14
67987;BME280;54767;53.800;15.956;2023-03-04T00:21:01;99986.63;;;2.78;78.27
67987;BME280;54767;53.800;15.956;2023-03-04T00:23:29;99979.94;;;2.80;78.18
67987;BME280;54767;53.800;15.956;2023-03-04T00:25:58;99977.91;;;2.82;78.19
67987;BME280;54767;53.800;15.956;2023-03-04T00:28:26;99979.37;;;2.84;78.21
67987;BME280;54767;53.800;15.956;2023-03-04T00:30:54;99981.83;;;2.86;78.46
67987;BME280;54767;53.800;15.956;2023-03-04T00:33:23;99985.83;;;2.86;78.31
67987;BME280;54767;53.800;15.956;2023-03-04T00:35:51;99987.01;;;2.86;78.29
67987;BME280;54767;53.800;15.956;2023-03-04T00:38:19;99984.97;;;2.87;78.43
67987;BME280;54767;53.800;15.956;2023-03-04T00:40:47;99982.11;;;2.89;78.39
67987;BME280;54767;53.800;15.956;2023-03-04T00:43:15;99974.91;;;2.92;78.43
67987;BME280;54767;53.800;15.956;2023-03-04T00:45:44;99969.27;;;2.94;78.34
67987;BME280;54767;53.800;15.956;2023-03-04T00:48:12;99961.17;;;2.95;78.33
67987;BME280;54767;53.800;15.956;2023-03-04T00:50:42;99959.70;;;2.98;78.11
67987;BME280;54767;53.800;15.956;2023-03-04T00:53:11;99955.94;;;3.00;78.36
67987;BME280;54767;53.800;15.956;2023-03-04T00:55:39;99950.75;;;3.00;78.42
67987;BME280;54767;53.800;15.956;2023-03-04T00:58:07;99950.08;;;3.00;78.37
67987;BME280;54767;53.800;15.956;2023-03-04T01:00:35;99952.15;;;3.00;78.41
67987;BME280;54767;53.800;15.956;2023-03-04T01:03:04;99954.99;;;3.02;78.26
67987;BME280;54767;53.800;15.956;2023-03-04T01:05:33;99948.10;;;3.04;78.41
67987;BME280;54767;53.800;15.956;2023-03-04T01:08:03;99943.33;;;3.06;78.29
67987;BME280;54767;53.800;15.956;2023-03-04T01:10:32;99939.75;;;3.08;78.42
67987;BME280;54767;53.800;15.956;2023-03-04T01:13:00;99934.61;;;3.10;78.41
67987;BME280;54767;53.800;15.956;2023-03-04T01:15:31;99926.70;;;3.11;78.40
67987;BME280;54767;53.800;15.956;2023-03-04T01:18:06;99930.70;;;3.12;78.63
67987;BME280;54767;53.800;15.956;2023-03-04T01:20:35;99929.33;;;3.12;78.62
67987;BME280;54767;53.800;15.956;2023-03-04T01:23:03;99924.13;;;3.12;78.44
67987;BME280;54767;53.800;15.956;2023-03-04T01:25:31;99918.58;;;3.12;78.58
67987;BME280;54767;53.800;15.956;2023-03-04T01:28:00;99918.94;;;3.12;78.40
67987;BME280;54767;53.800;15.956;2023-03-04T01:30:28;99918.33;;;3.15;78.52
67987;BME280;54767;53.800;15.956;2023-03-04T01:32:56;99913.01;;;3.16;78.86
67987;BME280;54767;53.800;15.956;2023-03-04T01:35:24;99910.09;;;3.17;78.69
67987;BME280;54767;53.800;15.956;2023-03-04T01:37:52;99906.28;;;3.17;78.38
67987;BME280;54767;53.800;15.956;2023-03-04T01:40:21;99904.71;;;3.17;78.53
67987;BME280;54767;53.800;15.956;2023-03-04T01:42:49;99906.68;;;3.19;78.82
67987;BME280;54767;53.800;15.956;2023-03-04T01:45:18;99909.16;;;3.22;78.68
67987;BME280;54767;53.800;15.956;2023-03-04T01:47:48;99906.64;;;3.24;78.56
67987;BME280;54767;53.800;15.956;2023-03-04T01:50:21;99903.58;;;3.26;78.65
67987;BME280;54767;53.800;15.956;2023-03-04T01:52:50;99897.73;;;3.28;78.41
67987;BME280;54767;53.800;15.956;2023-03-04T01:55:21;99899.71;;;3.30;78.67
67987;BME280;54767;53.800;15.956;2023-03-04T01:57:50;99899.72;;;3.30;78.91
67987;BME280;54767;53.800;15.956;2023-03-04T02:00:39;99899.84;;;3.29;78.76
67987;BME280;54767;53.800;15.956;2023-03-04T02:03:13;99901.61;;;3.30;78.55
67987;BME280;54767;53.800;15.956;2023-03-04T02:05:44;99891.82;;;3.33;78.82
67987;BME280;54767;53.800;15.956;2023-03-04T02:08:14;99890.65;;;3.35;78.55
67987;BME280;54767;53.800;15.956;2023-03-04T02:10:43;99880.20;;;3.38;78.46
67987;BME280;54767;53.800;15.956;2023-03-04T02:13:12;99876.04;;;3.38;78.69
67987;BME280;54767;53.800;15.956;2023-03-04T02:15:42;99875.04;;;3.39;78.70
67987;BME280;54767;53.800;15.956;2023-03-04T02:20:51;99870.36;;;3.39;78.77
67987;BME280;54767;53.800;15.956;2023-03-04T02:24:06;99869.13;;;3.38;78.68
67987;BME280;54767;53.800;15.956;2023-03-04T02:26:21;99868.60;;;3.38;78.58
67987;BME280;54767;53.800;15.956;2023-03-04T02:28:51;99866.02;;;3.38;78.60
67987;BME280;54767;53.800;15.956;2023-03-04T02:31:30;99865.17;;;3.39;78.79
67987;BME280;54767;53.800;15.956;2023-03-04T02:34:02;99866.41;;;3.40;78.73
67987;BME280;54767;53.800;15.956;2023-03-04T02:36:32;99861.97;;;3.43;78.86
67987;BME280;54767;53.800;15.956;2023-03-04T02:39:06;99862.36;;;3.45;78.87
67987;BME280;54767;53.800;15.956;2023-03-04T02:41:35;99857.16;;;3.45;78.91
67987;BME280;54767;53.800;15.956;2023-03-04T02:44:16;99857.52;;;3.45;78.85
67987;BME280;54767;53.800;15.956;2023-03-04T02:46:45;99850.77;;;3.45;78.76
67987;BME280;54767;53.800;15.956;2023-03-04T02:49:14;99846.45;;;3.46;78.82
67987;BME280;54767;53.800;15.956;2023-03-04T02:51:42;99841.86;;;3.48;78.99
67987;BME280;54767;53.800;15.956;2023-03-04T02:54:28;99840.86;;;3.50;79.02
67987;BME280;54767;53.800;15.956;2023-03-04T02:57:05;99836.77;;;3.53;78.73
67987;BME280;54767;53.800;15.956;2023-03-04T02:59:35;99836.63;;;3.54;78.75
67987;BME280;54767;53.800;15.956;2023-03-04T03:02:03;99841.45;;;3.53;78.78
67987;BME280;54767;53.800;15.956;2023-03-04T03:04:32;99837.23;;;3.50;78.83
67987;BME280;54767;53.800;15.956;2023-03-04T03:07:01;99839.46;;;3.49;78.82
67987;BME280;54767;53.800;15.956;2023-03-04T03:09:29;99837.74;;;3.50;78.89
67987;BME280;54767;53.800;15.956;2023-03-04T03:11:57;99833.64;;;3.52;78.93
67987;BME280;54767;53.800;15.956;2023-03-04T03:14:25;99832.83;;;3.54;79.10
67987;BME280;54767;53.800;15.956;2023-03-04T03:16:53;99830.31;;;3.57;78.87
67987;BME280;54767;53.800;15.956;2023-03-04T03:19:21;99826.56;;;3.59;78.98
67987;BME280;54767;53.800;15.956;2023-03-04T03:21:50;99829.05;;;3.62;78.82
67987;BME280;54767;53.800;15.956;2023-03-04T03:24:18;99824.04;;;3.62;78.87
67987;BME280;54767;53.800;15.956;2023-03-04T03:26:47;99825.57;;;3.62;78.88
67987;BME280;54767;53.800;15.956;2023-03-04T03:29:15;99822.25;;;3.61;78.66
67987;BME280;54767;53.800;15.956;2023-03-04T03:31:43;99820.85;;;3.60;78.62
67987;BME280;54767;53.800;15.956;2023-03-04T03:34:11;99828.32;;;3.61;78.92
67987;BME280;54767;53.800;15.956;2023-03-04T03:36:39;99825.39;;;3.61;78.88
67987;BME280;54767;53.800;15.956;2023-03-04T03:39:07;99824.04;;;3.63;78.93
67987;BME280;54767;53.800;15.956;2023-03-04T03:41:35;99821.68;;;3.66;78.62
67987;BME280;54767;53.800;15.956;2023-03-04T03:44:03;99825.01;;;3.68;78.87
67987;BME280;54767;53.800;15.956;2023-03-04T03:46:31;99818.80;;;3.68;78.76
67987;BME280;54767;53.800;15.956;2023-03-04T03:49:00;99813.89;;;3.66;78.64
67987;BME280;54767;53.800;15.956;2023-03-04T03:51:28;99811.41;;;3.63;78.65
67987;BME280;54767;53.800;15.956;2023-03-04T03:53:56;99806.34;;;3.61;78.82
67987;BME280;54767;53.800;15.956;2023-03-04T03:56:24;99802.36;;;3.61;78.91
67987;BME280;54767;53.800;15.956;2023-03-04T03:58:52;99796.51;;;3.62;79.02
67987;BME280;54767;53.800;15.956;2023-03-04T04:01:20;99794.82;;;3.64;78.87
67987;BME280;54767;53.800;15.956;2023-03-04T04:03:48;99792.14;;;3.68;79.03
67987;BME280;54767;53.800;15.956;2023-03-04T04:06:17;99798.23;;;3.70;78.91
67987;BME280;54767;53.800;15.956;2023-03-04T04:08:45;99794.58;;;3.69;78.64
67987;BME280;54767;53.800;15.956;2023-03-04T04:11:13;99796.66;;;3.69;78.92
67987;BME280;54767;53.800;15.956;2023-03-04T04:13:41;99801.16;;;3.69;78.88
67987;BME280;54767;53.800;15.956;2023-03-04T04:16:09;99798.95;;;3.71;79.00
67987;BME280;54767;53.800;15.956;2023-03-04T04:18:38;99801.77;;;3.72;78.72
67987;BME280;54767;53.800;15.956;2023-03-04T04:21:06;99802.85;;;3.75;78.79
67987;BME280;54767;53.800;15.956;2023-03-04T04:23:34;99803.42;;;3.78;78.87
67987;BME280;54767;53.800;15.956;2023-03-04T04:26:02;99798.65;;;3.80;78.94
67987;BME280;54767;53.800;15.956;2023-03-04T04:28:31;99794.67;;;3.81;78.92
67987;BME280;54767;53.800;15.956;2023-03-04T04:30:59;99794.48;;;3.80;78.91
67987;BME280;54767;53.800;15.956;2023-03-04T04:33:27;99794.32;;;3.80;78.86
67987;BME280;54767;53.800;15.956;2023-03-04T04:35:55;99797.27;;;3.81;79.03
67987;BME280;54767;53.800;15.956;2023-03-04T04:38:23;99796.25;;;3.81;78.62
67987;BME280;54767;53.800;15.956;2023-03-04T04:40:52;99790.17;;;3.81;79.13
67987;BME280;54767;53.800;15.956;2023-03-04T04:43:20;99792.29;;;3.82;78.93
67987;BME280;54767;53.800;15.956;2023-03-04T04:45:48;99793.69;;;3.82;79.04
67987;BME280;54767;53.800;15.956;2023-03-04T04:48:17;99789.86;;;3.82;79.03
67987;BME280;54767;53.800;15.956;2023-03-04T04:50:45;99791.61;;;3.82;78.89
67987;BME280;54767;53.800;15.956;2023-03-04T04:53:13;99791.41;;;3.81;79.02
67987;BME280;54767;53.800;15.956;2023-03-04T04:55:41;99788.64;;;3.82;78.83
67987;BME280;54767;53.800;15.956;2023-03-04T04:58:09;99789.01;;;3.82;79.02
67987;BME280;54767;53.800;15.956;2023-03-04T05:00:37;99791.13;;;3.85;79.00
67987;BME280;54767;53.800;15.956;2023-03-04T05:03:05;99789.27;;;3.87;79.06
67987;BME280;54767;53.800;15.956;2023-03-04T05:05:33;99784.12;;;3.89;78.62
67987;BME280;54767;53.800;15.956;2023-03-04T05:08:01;99781.21;;;3.91;78.92
67987;BME280;54767;53.800;15.956;2023-03-04T05:10:29;99778.30;;;3.92;78.82
67987;BME280;54767;53.800;15.956;2023-03-04T05:12:58;99780.38;;;3.92;79.14
67987;BME280;54767;53.800;15.956;2023-03-04T05:15:26;99783.80;;;3.90;78.66
67987;BME280;54767;53.800;15.956;2023-03-04T05:17:54;99779.63;;;3.89;78.68
67987;BME280;54767;53.800;15.956;2023-03-04T05:20:22;99776.17;;;3.90;79.18
67987;BME280;54767;53.800;15.956;2023-03-04T05:22:50;99775.35;;;3.91;79.11
67987;BME280;54767;53.800;15.956;2023-03-04T05:25:18;99776.58;;;3.92;78.98
67987;BME280;54767;53.800;15.956;2023-03-04T05:27:47;99773.67;;;3.95;78.93
67987;BME280;54767;53.800;15.956;2023-03-04T05:30:15;99775.60;;;3.96;79.30
67987;BME280;54767;53.800;15.956;2023-03-04T05:32:43;99778.23;;;3.96;79.23
67987;BME280;54767;53.800;15.956;2023-03-04T05:35:11;99780.10;;;3.95;79.21
67987;BME280;54767;53.800;15.956;2023-03-04T05:37:39;99783.72;;;3.94;78.77
67987;BME280;54767;53.800;15.956;2023-03-04T05:40:08;99781.79;;;3.93;78.94
67987;BME280;54767;53.800;15.956;2023-03-04T05:42:36;99772.83;;;3.95;79.10
67987;BME280;54767;53.800;15.956;2023-03-04T05:45:05;99778.73;;;3.96;79.02
67987;BME280;54767;53.800;15.956;2023-03-04T05:47:33;99782.07;;;3.98;79.05
67987;BME280;54767;53.800;15.956;2023-03-04T05:50:02;99783.47;;;3.99;79.27
67987;BME280;54767;53.800;15.956;2023-03-04T05:52:30;99785.92;;;4.00;79.12
67987;BME280;54767;53.800;15.956;2023-03-04T05:54:58;99791.98;;;4.01;79.07
67987;BME280;54767;53.800;15.956;2023-03-04T05:57:26;99791.14;;;4.02;78.84
67987;BME280;54767;53.800;15.956;2023-03-04T05:59:54;99789.59;;;4.02;79.16
67987;BME280;54767;53.800;15.956;2023-03-04T06:02:22;99789.03;;;4.00;79.14
67987;BME280;54767;53.800;15.956;2023-03-04T06:04:50;99785.19;;;3.98;79.22
67987;BME280;54767;53.800;15.956;2023-03-04T06:07:18;99785.86;;;3.98;79.35
67987;BME280;54767;53.800;15.956;2023-03-04T06:09:46;99783.61;;;3.98;79.25
67987;BME280;54767;53.800;15.956;2023-03-04T06:12:15;99785.33;;;3.97;78.91
67987;BME280;54767;53.800;15.956;2023-03-04T06:14:43;99786.34;;;3.96;79.09
67987;BME280;54767;53.800;15.956;2023-03-04T06:17:11;99789.20;;;3.99;79.34
67987;BME280;54767;53.800;15.956;2023-03-04T06:19:39;99788.90;;;4.02;79.38
67987;BME280;54767;53.800;15.956;2023-03-04T06:22:09;99784.27;;;4.04;79.10
67987;BME280;54767;53.800;15.956;2023-03-04T06:24:37;99785.45;;;4.03;79.11
67987;BME280;54767;53.800;15.956;2023-03-04T06:27:06;99783.50;;;4.01;79.31
67987;BME280;54767;53.800;15.956;2023-03-04T06:29:34;99784.55;;;4.01;79.47
67987;BME280;54767;53.800;15.956;2023-03-04T06:32:02;99780.96;;;4.03;79.25
67987;BME280;54767;53.800;15.956;2023-03-04T06:34:30;99785.48;;;4.04;79.27
67987;BME280;54767;53.800;15.956;2023-03-04T06:37:00;99785.84;;;4.05;79.06
67987;BME280;54767;53.800;15.956;2023-03-04T06:39:28;99785.89;;;4.07;79.11
67987;BME280;54767;53.800;15.956;2023-03-04T06:41:57;99786.59;;;4.08;79.36
67987;BME280;54767;53.800;15.956;2023-03-04T06:44:25;99790.95;;;4.09;79.16
67987;BME280;54767;53.800;15.956;2023-03-04T06:46:53;99789.36;;;4.08;79.39
67987;BME280;54767;53.800;15.956;2023-03-04T06:49:22;99790.89;;;4.06;79.41
67987;BME280;54767;53.800;15.956;2023-03-04T06:51:50;99791.07;;;4.06;79.10
67987;BME280;54767;53.800;15.956;2023-03-04T06:54:19;99787.83;;;4.08;79.23
67987;BME280;54767;53.800;15.956;2023-03-04T06:56:48;99791.99;;;4.09;79.35
67987;BME280;54767;53.800;15.956;2023-03-04T06:59:16;99783.00;;;4.10;79.16
67987;BME280;54767;53.800;15.956;2023-03-04T07:01:44;99786.01;;;4.13;79.02
67987;BME280;54767;53.800;15.956;2023-03-04T07:04:13;99785.77;;;4.18;79.44
67987;BME280;54767;53.800;15.956;2023-03-04T07:06:41;99782.71;;;4.20;79.33
67987;BME280;54767;53.800;15.956;2023-03-04T07:09:09;99785.16;;;4.22;79.19
67987;BME280;54767;53.800;15.956;2023-03-04T07:11:37;99787.91;;;4.21;79.01
67987;BME280;54767;53.800;15.956;2023-03-04T07:14:06;99786.34;;;4.20;79.32
67987;BME280;54767;53.800;15.956;2023-03-04T07:16:34;99787.23;;;4.22;78.96
67987;BME280;54767;53.800;15.956;2023-03-04T07:19:02;99783.23;;;4.22;78.83
67987;BME280;54767;53.800;15.956;2023-03-04T07:21:30;99782.59;;;4.24;79.30
67987;BME280;54767;53.800;15.956;2023-03-04T07:23:58;99786.45;;;4.26;78.81
67987;BME280;54767;53.800;15.956;2023-03-04T07:26:27;99784.73;;;4.27;79.13
67987;BME280;54767;53.800;15.956;2023-03-04T07:28:55;99786.52;;;4.29;79.28
67987;BME280;54767;53.800;15.956;2023-03-04T07:31:30;99788.75;;;4.28;78.86
67987;BME280;54767;53.800;15.956;2023-03-04T07:34:01;99786.96;;;4.26;79.06
67987;BME280;54767;53.800;15.956;2023-03-04T07:36:31;99783.98;;;4.23;78.85
67987;BME280;54767;53.800;15.956;2023-03-04T07:38:59;99786.90;;;4.23;78.79
67987;BME280;54767;53.800;15.956;2023-03-04T07:41:28;99787.45;;;4.24;79.18
67987;BME280;54767;53.800;15.956;2023-03-04T07:43:57;99786.23;;;4.24;79.09
67987;BME280;54767;53.800;15.956;2023-03-04T07:46:25;99785.91;;;4.25;79.21
67987;BME280;54767;53.800;15.956;2023-03-04T07:48:54;99784.55;;;4.26;78.91
67987;BME280;54767;53.800;15.956;2023-03-04T07:51:24;99785.91;;;4.24;79.01
67987;BME280;54767;53.800;15.956;2023-03-04T07:53:56;99789.66;;;4.22;79.08
67987;BME280;54767;53.800;15.956;2023-03-04T07:56:27;99785.80;;;4.19;78.97
67987;BME280;54767;53.800;15.956;2023-03-04T07:58:56;99791.66;;;4.18;79.26
67987;BME280;54767;53.800;15.956;2023-03-04T08:01:35;99785.23;;;4.18;79.05
67987;BME280;54767;53.800;15.956;2023-03-04T08:04:05;99783.57;;;4.13;79.06
67987;BME280;54767;53.800;15.956;2023-03-04T08:06:34;99789.77;;;4.11;78.97
67987;BME280;54767;53.800;15.956;2023-03-04T08:09:05;99791.19;;;4.12;79.25
67987;BME280;54767;53.800;15.956;2023-03-04T08:11:36;99790.55;;;4.14;79.33
67987;BME280;54767;53.800;15.956;2023-03-04T08:14:05;99792.81;;;4.16;79.42
67987;BME280;54767;53.800;15.956;2023-03-04T08:16:33;99793.86;;;4.16;79.28
67987;BME280;54767;53.800;15.956;2023-03-04T08:19:03;99792.01;;;4.18;79.53
67987;BME280;54767;53.800;15.956;2023-03-04T08:21:31;99788.42;;;4.21;79.73
67987;BME280;54767;53.800;15.956;2023-03-04T08:24:00;99788.23;;;4.20;79.35
67987;BME280;54767;53.800;15.956;2023-03-04T08:26:32;99790.62;;;4.18;79.39
67987;BME280;54767;53.800;15.956;2023-03-04T08:29:03;99784.92;;;4.19;80.02
67987;BME280;54767;53.800;15.956;2023-03-04T08:31:32;99788.74;;;4.20;79.67
67987;BME280;54767;53.800;15.956;2023-03-04T08:34:04;99789.77;;;4.19;79.95
67987;BME280;54767;53.800;15.956;2023-03-04T08:36:33;99790.23;;;4.16;80.03
67987;BME280;54767;53.800;15.956;2023-03-04T08:39:02;99794.86;;;4.14;79.67
67987;BME280;54767;53.800;15.956;2023-03-04T08:41:31;99796.91;;;4.12;80.20
67987;BME280;54767;53.800;15.956;2023-03-04T08:44:00;99797.56;;;4.10;80.30
67987;BME280;54767;53.800;15.956;2023-03-04T08:46:28;99799.56;;;4.07;80.04
67987;BME280;54767;53.800;15.956;2023-03-04T08:48:56;99803.34;;;4.05;80.47
67987;BME280;54767;53.800;15.956;2023-03-04T08:51:24;99803.73;;;3.99;80.49
67987;BME280;54767;53.800;15.956;2023-03-04T08:53:52;99805.94;;;3.97;80.31
67987;BME280;54767;53.800;15.956;2023-03-04T08:56:21;99803.44;;;3.94;80.21
67987;BME280;54767;53.800;15.956;2023-03-04T08:58:49;99804.20;;;3.89;80.18
67987;BME280;54767;53.800;15.956;2023-03-04T09:01:19;99805.23;;;3.81;80.21
67987;BME280;54767;53.800;15.956;2023-03-04T09:03:47;99804.41;;;3.75;80.57
67987;BME280;54767;53.800;15.956;2023-03-04T09:06:16;99808.10;;;3.70;80.29
67987;BME280;54767;53.800;15.956;2023-03-04T09:08:45;99806.17;;;3.68;80.56
67987;BME280;54767;53.800;15.956;2023-03-04T09:11:14;99807.81;;;3.73;80.99
67987;BME280;54767;53.800;15.956;2023-03-04T09:13:42;99809.50;;;3.78;80.60
67987;BME280;54767;53.800;15.956;2023-03-04T09:16:12;99815.35;;;3.84;80.92
67987;BME280;54767;53.800;15.956;2023-03-04T09:18:41;99816.59;;;3.86;80.46
67987;BME280;54767;53.800;15.956;2023-03-04T09:21:09;99821.85;;;3.81;80.68
67987;BME280;54767;53.800;15.956;2023-03-04T09:23:38;99824.46;;;3.74;80.61
67987;BME280;54767;53.800;15.956;2023-03-04T09:26:17;99822.63;;;3.70;80.34
67987;BME280;54767;53.800;15.956;2023-03-04T09:28:58;99829.52;;;3.68;80.82
67987;BME280;54767;53.800;15.956;2023-03-04T09:31:29;99831.05;;;3.67;81.02
67987;BME280;54767;53.800;15.956;2023-03-04T09:33:58;99833.09;;;3.65;80.81
67987;BME280;54767;53.800;15.956;2023-03-04T09:36:26;99833.71;;;3.62;80.60
67987;BME280;54767;53.800;15.956;2023-03-04T09:38:58;99837.30;;;3.59;80.58
67987;BME280;54767;53.800;15.956;2023-03-04T09:41:39;99841.45;;;3.60;80.97
67987;BME280;54767;53.800;15.956;2023-03-04T09:44:33;99844.44;;;3.62;80.59
67987;BME280;54767;53.800;15.956;2023-03-04T09:47:08;99851.02;;;3.62;80.52
67987;BME280;54767;53.800;15.956;2023-03-04T09:49:40;99847.38;;;3.62;79.65
67987;BME280;54767;53.800;15.956;2023-03-04T09:55:13;99851.64;;;3.59;79.93
67987;BME280;54767;53.800;15.956;2023-03-04T10:00:41;99862.98;;;3.49;76.57
67987;BME280;54767;53.800;15.956;2023-03-04T10:03:15;99877.17;;;3.35;75.10
67987;BME280;54767;53.800;15.956;2023-03-04T10:05:56;99877.84;;;3.28;73.20
67987;BME280;54767;53.800;15.956;2023-03-04T10:16:53;99891.33;;;2.94;65.59
67987;BME280;54767;53.800;15.956;2023-03-04T10:22:00;99901.17;;;2.88;64.30
67987;BME280;54767;53.800;15.956;2023-03-04T10:24:29;99905.83;;;2.87;64.64
67987;BME280;54767;53.800;15.956;2023-03-04T10:27:09;99908.27;;;2.88;64.80
67987;BME280;54767;53.800;15.956;2023-03-04T10:29:40;99907.29;;;2.90;64.93
67987;BME280;54767;53.800;15.956;2023-03-04T10:32:15;99912.87;;;2.92;66.19
67987;BME280;54767;53.800;15.956;2023-03-04T10:34:45;99912.13;;;2.97;63.97
67987;BME280;54767;53.800;15.956;2023-03-04T10:37:14;99918.95;;;3.00;64.56
67987;BME280;54767;53.800;15.956;2023-03-04T10:39:45;99923.87;;;3.03;64.08
67987;BME280;54767;53.800;15.956;2023-03-04T10:45:02;99925.52;;;3.06;64.38
67987;BME280;54767;53.800;15.956;2023-03-04T10:47:31;99936.44;;;3.07;63.89
67987;BME280;54767;53.800;15.956;2023-03-04T10:50:03;99938.02;;;3.08;62.36
67987;BME280;54767;53.800;15.956;2023-03-04T10:52:39;99942.96;;;3.11;62.68
67987;BME280;54767;53.800;15.956;2023-03-04T10:55:17;99940.49;;;3.16;61.95
67987;BME280;54767;53.800;15.956;2023-03-04T10:57:49;99944.08;;;3.20;61.23
67987;BME280;54767;53.800;15.956;2023-03-04T11:03:33;99949.38;;;3.25;59.35
67987;BME280;54767;53.800;15.956;2023-03-04T11:08:39;99958.45;;;3.15;59.13
67987;BME280;54767;53.800;15.956;2023-03-04T11:11:24;99957.02;;;3.13;59.06
67987;BME280;54767;53.800;15.956;2023-03-04T11:13:58;99954.54;;;3.05;58.33
67987;BME280;54767;53.800;15.956;2023-03-04T11:16:30;99958.94;;;3.02;58.02
67987;BME280;54767;53.800;15.956;2023-03-04T11:19:05;99951.61;;;2.99;59.07
67987;BME280;54767;53.800;15.956;2023-03-04T11:21:42;99953.42;;;3.02;59.68
67987;BME280;54767;53.800;15.956;2023-03-04T11:24:15;99952.20;;;3.08;59.78
67987;BME280;54767;53.800;15.956;2023-03-04T11:27:05;99960.41;;;3.11;59.06
67987;BME280;54767;53.800;15.956;2023-03-04T11:29:42;99953.05;;;3.13;58.66
67987;BME280;54767;53.800;15.956;2023-03-04T11:32:26;99960.03;;;3.23;57.52
67987;BME280;54767;53.800;15.956;2023-03-04T11:34:58;99961.50;;;3.26;56.13
67987;BME280;54767;53.800;15.956;2023-03-04T11:37:40;99964.40;;;3.31;58.65
67987;BME280;54767;53.800;15.956;2023-03-04T11:40:15;99970.80;;;3.30;52.62
67987;BME280;54767;53.800;15.956;2023-03-04T11:43:01;99970.61;;;3.24;53.91
67987;BME280;54767;53.800;15.956;2023-03-04T11:57:05;99968.06;;;2.94;55.22
67987;BME280;54767;53.800;15.956;2023-03-04T12:02:47;99972.83;;;2.97;53.74
67987;BME280;54767;53.800;15.956;2023-03-04T12:05:41;99972.29;;;2.91;51.80
67987;BME280;54767;53.800;15.956;2023-03-04T12:08:28;99971.52;;;2.82;51.46
67987;BME280;54767;53.800;15.956;2023-03-04T12:14:10;99977.16;;;2.68;53.87
67987;BME280;54767;53.800;15.956;2023-03-04T12:16:59;99981.44;;;2.67;52.79
67987;BME280;54767;53.800;15.956;2023-03-04T12:36:01;99999.94;;;2.49;48.94
67987;BME280;54767;53.800;15.956;2023-03-04T12:38:57;99996.30;;;2.43;48.17
67987;BME280;54767;53.800;15.956;2023-03-04T12:41:44;100000.23;;;2.37;45.54
67987;BME280;54767;53.800;15.956;2023-03-04T12:44:17;99993.71;;;2.27;45.41
67987;BME280;54767;53.800;15.956;2023-03-04T12:55:15;99989.53;;;2.10;49.08
67987;BME280;54767;53.800;15.956;2023-03-04T12:57:45;99985.00;;;2.13;49.52
67987;BME280;54767;53.800;15.956;2023-03-04T13:02:44;99996.64;;;2.27;47.40
67987;BME280;54767;53.800;15.956;2023-03-04T13:05:23;99991.23;;;2.25;45.98
67987;BME280;54767;53.800;15.956;2023-03-04T13:10:30;99988.13;;;2.31;49.80
67987;BME280;54767;53.800;15.956;2023-03-04T13:13:00;99995.73;;;2.37;48.37
67987;BME280;54767;53.800;15.956;2023-03-04T13:18:00;99995.32;;;2.35;48.76
67987;BME280;54767;53.800;15.956;2023-03-04T13:23:00;99991.59;;;2.37;48.78
67987;BME280;54767;53.800;15.956;2023-03-04T13:25:43;99990.80;;;2.39;50.25
67987;BME280;54767;53.800;15.956;2023-03-04T13:28:30;99989.80;;;2.45;50.61
67987;BME280;54767;53.800;15.956;2023-03-04T13:31:15;99980.98;;;2.51;50.77
67987;BME280;54767;53.800;15.956;2023-03-04T13:33:49;99979.98;;;2.58;51.55
67987;BME280;54767;53.800;15.956;2023-03-04T13:41:53;99984.14;;;2.64;50.35
67987;BME280;54767;53.800;15.956;2023-03-04T13:47:20;99987.67;;;2.50;50.87
67987;BME280;54767;53.800;15.956;2023-03-04T13:49:49;99993.68;;;2.48;50.26
67987;BME280;54767;53.800;15.956;2023-03-04T13:55:30;99989.11;;;2.46;49.72
67987;BME280;54767;53.800;15.956;2023-03-04T13:58:01;99990.46;;;2.45;48.66
67987;BME280;54767;53.800;15.956;2023-03-04T14:00:35;99994.48;;;2.40;48.09
67987;BME280;54767;53.800;15.956;2023-03-04T14:03:16;99995.05;;;2.37;48.71
67987;BME280;54767;53.800;15.956;2023-03-04T14:05:47;99995.67;;;2.35;47.87
67987;BME280;54767;53.800;15.956;2023-03-04T14:08:19;99996.61;;;2.31;47.05
67987;BME280;54767;53.800;15.956;2023-03-04T14:10:54;99999.94;;;2.27;47.69
67987;BME280;54767;53.800;15.956;2023-03-04T14:13:23;100000.96;;;2.27;48.76
67987;BME280;54767;53.800;15.956;2023-03-04T14:15:54;99998.77;;;2.29;49.04
67987;BME280;54767;53.800;15.956;2023-03-04T14:18:23;100003.80;;;2.29;48.86
67987;BME280;54767;53.800;15.956;2023-03-04T14:20:52;100001.33;;;2.27;47.90
67987;BME280;54767;53.800;15.956;2023-03-04T14:23:28;100003.05;;;2.22;47.24
67987;BME280;54767;53.800;15.956;2023-03-04T14:26:11;100001.50;;;2.17;47.57
67987;BME280;54767;53.800;15.956;2023-03-04T14:28:47;99996.87;;;2.12;46.94
67987;BME280;54767;53.800;15.956;2023-03-04T14:31:21;100000.17;;;2.08;47.13
67987;BME280;54767;53.800;15.956;2023-03-04T14:33:53;100003.16;;;2.04;48.67
67987;BME280;54767;53.800;15.956;2023-03-04T14:36:31;100002.30;;;2.03;47.94
67987;BME280;54767;53.800;15.956;2023-03-04T14:39:03;100003.45;;;2.02;48.07
67987;BME280;54767;53.800;15.956;2023-03-04T14:41:34;100005.41;;;1.99;47.20
67987;BME280;54767;53.800;15.956;2023-03-04T14:44:07;100003.85;;;1.93;47.07
67987;BME280;54767;53.800;15.956;2023-03-04T14:46:40;100001.10;;;1.88;46.64
67987;BME280;54767;53.800;15.956;2023-03-04T14:49:14;100001.16;;;1.85;46.64
67987;BME280;54767;53.800;15.956;2023-03-04T14:51:47;100000.08;;;1.83;47.02